Time;durP1;ratioP1;P1;durP2;ratioP2;P2;SDS_P1;SDS_P2;PMS_P1;PMS_P2;Temp;Humidity;BMP_temperature;BMP_pressure;BME280_temperature;BME280_humidity;BME280_pressure;Samples;Min_cycle;Max_cycle;Signal;HPM_P1;HPM_P2
2023/08/07 00:02:04;;;;;;;1.42;0.95;;;18.30;90.00;;;;;;4973837;28;20062;-91
2023/08/07 00:04:30;;;;;;;2.00;1.00;;;18.30;90.00;;;;;;4977766;28;20023;-92
2023/08/07 00:06:58;;;;;;;3.45;0.80;;;18.30;90.00;;;;;;4968795;28;20031;-91
2023/08/07 00:09:24;;;;;;;2.38;0.90;;;18.30;90.00;;;;;;4988412;28;20018;-88
2023/08/07 00:11:50;;;;;;;3.60;1.10;;;18.40;90.10;;;;;;4978788;28;20030;-92
2023/08/07 00:14:16;;;;;;;1.10;0.90;;;18.40;90.10;;;;;;4983103;28;20029;-91
2023/08/07 00:16:41;;;;;;;2.47;1.00;;;18.30;90.40;;;;;;4974647;28;20058;-91
2023/08/07 00:19:07;;;;;;;3.97;0.70;;;19.30;90.50;;;;;;4983294;28;20121;-89
2023/08/07 00:21:35;;;;;;;1.00;0.80;;;18.30;90.00;;;;;;4980697;28;20431;-92
2023/08/07 00:24:01;;;;;;;0.77;0.75;;;18.30;90.00;;;;;;4972911;28;20038;-90
2023/08/07 00:26:26;;;;;;;5.55;1.17;;;18.30;90.00;;;;;;4989692;28;20030;-91
2023/08/07 00:28:52;;;;;;;1.20;0.93;;;18.30;90.20;;;;;;4973038;28;20136;-91
2023/08/07 00:31:17;;;;;;;1.38;0.85;;;18.20;90.00;;;;;;4979773;28;20038;-92
2023/08/07 00:33:43;;;;;;;3.13;0.80;;;18.30;90.00;;;;;;4969180;28;20090;-92
2023/08/07 00:36:09;;;;;;;0.98;0.80;;;18.30;90.00;;;;;;4983646;28;20510;-91
2023/08/07 00:38:34;;;;;;;3.95;0.95;;;18.30;90.00;;;;;;4979528;28;20106;-91
2023/08/07 00:41:00;;;;;;;0.88;0.73;;;18.30;90.00;;;;;;4972164;28;20058;-92
2023/08/07 00:43:25;;;;;;;1.48;0.80;;;18.20;90.00;;;;;;4989481;28;20027;-91
2023/08/07 00:45:51;;;;;;;1.20;0.85;;;19.10;90.20;;;;;;4974252;28;20041;-91
2023/08/07 00:48:17;;;;;;;2.25;1.10;;;18.30;90.30;;;;;;4985043;28;20042;-90
2023/08/07 00:50:47;;;;;;;0.80;0.70;;;18.30;90.00;;;;;;4972795;28;20393;-94
2023/08/07 00:53:16;;;;;;;2.67;1.10;;;18.30;90.00;;;;;;4984181;28;20057;-96
2023/08/07 00:55:42;;;;;;;2.85;0.80;;;18.30;90.00;;;;;;4971687;28;20086;-93
2023/08/07 00:58:08;;;;;;;2.25;0.80;;;18.30;90.00;;;;;;4971904;28;20037;-92
2023/08/07 01:00:34;;;;;;;1.08;0.80;;;18.30;90.00;;;;;;4992659;28;20471;-94
2023/08/07 01:03:01;;;;;;;1.52;0.88;;;18.20;89.90;;;;;;4973531;28;20038;-92
2023/08/07 01:05:26;;;;;;;0.75;0.57;;;18.30;89.90;;;;;;4989100;28;20034;-93
2023/08/07 01:07:55;;;;;;;1.38;1.00;;;18.30;89.90;;;;;;4985786;28;20098;-92
2023/08/07 01:10:49;;;;;;;1.42;0.75;;;18.30;89.90;;;;;;4983851;28;20035;-93
2023/08/07 01:13:32;;;;;;;2.80;0.90;;;18.30;89.90;;;;;;4966276;28;20034;-93
2023/08/07 01:16:07;;;;;;;2.60;0.85;;;18.30;89.90;;;;;;4988977;28;20141;-91
2023/08/07 01:18:34;;;;;;;2.20;0.93;;;18.30;90.20;;;;;;4989235;28;20030;-89
2023/08/07 01:21:06;;;;;;;3.00;0.77;;;19.10;90.10;;;;;;4973007;28;20026;-87
2023/08/07 01:23:31;;;;;;;2.63;1.10;;;18.30;89.70;;;;;;4988515;28;20022;-91
2023/08/07 01:25:57;;;;;;;2.10;0.95;;;18.20;89.60;;;;;;4969142;28;20427;-94
2023/08/07 01:28:25;;;;;;;1.63;0.80;;;18.30;89.70;;;;;;4975520;28;20531;-93
2023/08/07 01:30:59;;;;;;;0.60;0.60;;;18.30;89.70;;;;;;4983870;28;20054;-92
2023/08/07 01:33:40;;;;;;;2.22;0.90;;;18.30;89.70;;;;;;4979619;28;20084;-92
2023/08/07 01:36:07;;;;;;;1.60;0.80;;;18.30;89.60;;;;;;4973316;28;20039;-92
2023/08/07 01:38:33;;;;;;;1.00;0.90;;;19.00;90.00;;;;;;4988317;28;20018;-92
2023/08/07 01:41:00;;;;;;;5.05;1.10;;;18.20;89.50;;;;;;4967869;28;20023;-92
2023/08/07 01:43:26;;;;;;;0.82;0.80;;;18.30;89.50;;;;;;4971384;28;20049;-94
2023/08/07 01:45:52;;;;;;;2.45;1.42;;;18.90;89.90;;;;;;4975041;28;20127;-91
2023/08/07 01:48:18;;;;;;;1.35;0.90;;;18.30;89.50;;;;;;4976083;28;20062;-92
2023/08/07 01:50:44;;;;;;;5.00;1.00;;;18.20;89.40;;;;;;4989990;28;20027;-93
2023/08/07 01:53:09;;;;;;;2.08;0.77;;;18.20;89.40;;;;;;4970921;28;20029;-92
2023/08/07 01:55:35;;;;;;;2.95;1.38;;;18.30;89.50;;;;;;4972566;28;20122;-93
2023/08/07 01:58:00;;;;;;;4.55;1.00;;;18.20;89.40;;;;;;4979033;28;20030;-94
2023/08/07 02:00:26;;;;;;;5.03;0.82;;;19.00;89.90;;;;;;4975138;28;20110;-93
2023/08/07 02:02:52;;;;;;;2.45;0.90;;;18.20;89.30;;;;;;4987023;28;20048;-94
2023/08/07 02:05:18;;;;;;;1.27;1.05;;;18.30;89.30;;;;;;4973320;28;20051;-94
2023/08/07 02:07:44;;;;;;;2.70;0.90;;;18.80;89.70;;;;;;4987557;28;20026;-94
2023/08/07 02:10:10;;;;;;;2.70;1.05;;;18.20;89.30;;;;;;4968286;28;20114;-91
2023/08/07 02:12:36;;;;;;;2.72;0.70;;;18.30;89.30;;;;;;4988236;28;20117;-92
2023/08/07 02:15:01;;;;;;;0.70;0.70;;;18.20;89.30;;;;;;4968363;28;20027;-94
2023/08/07 02:17:29;;;;;;;2.15;0.80;;;18.20;89.30;;;;;;4974464;28;20510;-94
2023/08/07 02:19:56;;;;;;;1.10;1.00;;;18.30;89.30;;;;;;4988181;28;20031;-92
2023/08/07 02:22:21;;;;;;;3.67;0.95;;;18.30;89.30;;;;;;4971754;28;20036;-91
2023/08/07 02:24:47;;;;;;;4.05;1.00;;;18.20;89.20;;;;;;4983883;28;20126;-92
2023/08/07 02:27:12;;;;;;;6.53;1.00;;;18.20;89.20;;;;;;4985840;28;20035;-92
2023/08/07 02:29:38;;;;;;;5.03;1.20;;;18.20;89.30;;;;;;4965259;28;20035;-92
2023/08/07 02:32:04;;;;;;;2.20;0.88;;;18.20;89.20;;;;;;4968832;28;20024;-93
2023/08/07 02:34:31;;;;;;;1.15;0.77;;;18.20;89.20;;;;;;4973684;28;20030;-94
2023/08/07 02:36:56;;;;;;;1.38;1.00;;;18.20;89.20;;;;;;4976877;28;20041;-93
2023/08/07 02:39:22;;;;;;;1.33;1.00;;;18.20;89.20;;;;;;4972767;28;20031;-92
2023/08/07 02:41:48;;;;;;;1.73;1.10;;;18.20;89.20;;;;;;4989664;28;20089;-91
2023/08/07 02:44:14;;;;;;;2.10;1.20;;;18.20;89.10;;;;;;4971440;28;20031;-89
2023/08/07 02:46:39;;;;;;;1.92;0.90;;;18.60;89.30;;;;;;4988325;28;20468;-92
2023/08/07 02:49:05;;;;;;;2.95;1.00;;;18.10;88.90;;;;;;4969244;28;20023;-93
2023/08/07 02:51:32;;;;;;;7.03;0.85;;;18.20;89.00;;;;;;4973122;28;20030;-92
2023/08/07 02:53:57;;;;;;;1.67;1.20;;;18.20;89.00;;;;;;4989341;28;20034;-93
2023/08/07 02:56:23;;;;;;;2.63;1.00;;;18.20;88.90;;;;;;4979926;28;20042;-90
2023/08/07 02:58:48;;;;;;;1.58;0.88;;;18.20;88.90;;;;;;4988070;28;21034;-91
2023/08/07 03:01:14;;;;;;;1.30;0.90;;;18.20;88.80;;;;;;4989473;28;20111;-94
2023/08/07 03:03:40;;;;;;;2.25;0.82;;;18.20;88.80;;;;;;4976387;28;20033;-92
2023/08/07 03:06:06;;;;;;;0.85;0.85;;;18.20;88.80;;;;;;4975883;28;20133;-88
2023/08/07 03:08:31;;;;;;;4.07;1.00;;;18.20;88.80;;;;;;4975485;28;20646;-88
2023/08/07 03:10:58;;;;;;;0.80;0.70;;;18.20;88.70;;;;;;4993865;28;20058;-87
2023/08/07 03:13:25;;;;;;;2.60;1.08;;;18.20;88.70;;;;;;4973851;28;20023;-91
2023/08/07 03:15:58;;;;;;;5.00;0.95;;;18.20;88.60;;;;;;4972501;28;20054;-93
2023/08/07 03:18:23;;;;;;;2.10;1.02;;;18.20;88.60;;;;;;4989668;28;20031;-89
2023/08/07 03:20:49;;;;;;;1.63;0.90;;;18.20;88.50;;;;;;4975319;28;20034;-92
2023/08/07 03:23:15;;;;;;;3.10;1.25;;;18.20;88.50;;;;;;4988004;28;20027;-90
2023/08/07 03:25:40;;;;;;;1.27;0.98;;;18.20;88.40;;;;;;4986794;28;20518;-91
2023/08/07 03:28:06;;;;;;;1.52;1.05;;;18.20;88.40;;;;;;4976219;28;20066;-90
2023/08/07 03:30:31;;;;;;;1.15;1.00;;;18.10;88.30;;;;;;4972395;28;20032;-93
2023/08/07 03:32:57;;;;;;;3.10;0.98;;;18.20;88.40;;;;;;4974988;28;20027;-96
2023/08/07 03:35:22;;;;;;;1.20;0.90;;;18.10;88.40;;;;;;4974269;28;20019;-92
2023/08/07 03:37:49;;;;;;;1.08;0.98;;;18.10;88.40;;;;;;4974183;28;20559;-92
2023/08/07 03:40:14;;;;;;;1.40;1.08;;;18.10;88.20;;;;;;4978622;28;20027;-89
2023/08/07 03:42:40;;;;;;;1.92;1.00;;;18.20;88.30;;;;;;4990962;28;20100;-90
2023/08/07 03:45:06;;;;;;;1.38;0.88;;;18.10;88.20;;;;;;4992880;28;20550;-95
2023/08/07 03:47:32;;;;;;;1.17;1.00;;;18.10;88.20;;;;;;4987939;28;20034;-95
2023/08/07 03:49:57;;;;;;;0.80;0.80;;;18.10;88.10;;;;;;4974752;28;20031;-85
2023/08/07 03:52:23;;;;;;;2.60;1.00;;;18.10;88.10;;;;;;4984462;28;20102;-88
2023/08/07 03:54:48;;;;;;;3.10;1.00;;;18.10;88.00;;;;;;4974976;28;20027;-90
2023/08/07 03:57:14;;;;;;;5.20;0.90;;;18.10;88.10;;;;;;4981707;28;20027;-93
2023/08/07 03:59:39;;;;;;;5.22;1.08;;;18.10;88.00;;;;;;4977087;28;20102;-90
2023/08/07 04:02:05;;;;;;;4.43;0.93;;;18.20;87.90;;;;;;4978120;28;20023;-95
2023/08/07 04:04:31;;;;;;;1.42;1.00;;;18.10;87.90;;;;;;4987540;28;20058;-95
2023/08/07 04:06:57;;;;;;;2.72;1.00;;;18.10;87.80;;;;;;4980980;28;20042;-95
2023/08/07 04:09:23;;;;;;;2.63;1.52;;;18.10;87.60;;;;;;4973646;28;20024;-91
2023/08/07 04:11:48;;;;;;;2.40;1.10;;;18.10;87.70;;;;;;4979980;28;20046;-93
2023/08/07 04:14:14;;;;;;;1.63;1.00;;;18.10;87.80;;;;;;4977527;28;20479;-94
2023/08/07 04:16:40;;;;;;;2.63;1.00;;;18.10;87.70;;;;;;4984682;28;20038;-95
2023/08/07 04:19:07;;;;;;;2.28;0.95;;;18.10;87.60;;;;;;4978879;28;20077;-95
2023/08/07 04:21:33;;;;;;;2.88;1.00;;;18.10;87.70;;;;;;4990169;28;20043;-95
2023/08/07 04:24:00;;;;;;;2.30;0.80;;;18.10;87.70;;;;;;4977182;28;20022;-93
2023/08/07 04:26:26;;;;;;;4.22;1.15;;;18.10;87.60;;;;;;4988270;28;20050;-96
2023/08/07 04:28:52;;;;;;;7.53;1.30;;;18.10;88.30;;;;;;4975607;28;20081;-94
2023/08/07 04:31:17;;;;;;;3.63;1.00;;;18.10;88.20;;;;;;4980426;28;20027;-96
2023/08/07 04:34:02;;;;;;;6.45;1.00;;;18.10;87.50;;;;;;4977417;28;20027;-94
2023/08/07 04:36:27;;;;;;;2.90;1.00;;;18.10;87.50;;;;;;4973106;28;20639;-89
2023/08/07 04:38:55;;;;;;;1.35;1.02;;;18.10;87.50;;;;;;4989272;28;20129;-95
2023/08/07 04:41:21;;;;;;;1.67;1.08;;;18.10;87.30;;;;;;4972339;28;20031;-94
2023/08/07 04:43:48;;;;;;;2.80;1.00;;;18.10;87.50;;;;;;4987985;28;20031;-91
2023/08/07 04:46:14;;;;;;;1.98;1.10;;;18.00;84.50;;;;;;4976348;28;20022;-92
2023/08/07 04:48:40;;;;;;;10.95;1.30;;;18.00;85.40;;;;;;4971543;28;20031;-90
2023/08/07 04:51:05;;;;;;;4.63;2.08;;;18.00;85.60;;;;;;4990985;28;20033;-90
2023/08/07 04:53:31;;;;;;;3.47;1.05;;;18.00;85.60;;;;;;4972647;28;20025;-90
2023/08/07 04:55:56;;;;;;;2.72;1.05;;;18.00;85.80;;;;;;4974566;28;20103;-90
2023/08/07 04:58:22;;;;;;;3.22;1.08;;;18.00;85.80;;;;;;4968680;28;20059;-87
2023/08/07 05:00:48;;;;;;;1.45;1.00;;;18.00;85.80;;;;;;4987156;28;20027;-89
2023/08/07 05:03:15;;;;;;;5.53;1.10;;;18.10;85.90;;;;;;4977090;28;20559;-90
2023/08/07 05:05:41;;;;;;;12.15;1.55;;;18.00;86.10;;;;;;4975112;28;20037;-92
2023/08/07 05:08:06;;;;;;;2.80;1.10;;;18.10;86.00;;;;;;4983314;28;20117;-94
2023/08/07 05:10:32;;;;;;;2.08;1.10;;;18.10;86.00;;;;;;4970707;28;20031;-89
2023/08/07 05:12:57;;;;;;;3.92;1.10;;;18.10;86.00;;;;;;4972371;28;20126;-89
2023/08/07 05:15:24;;;;;;;2.17;0.90;;;18.20;86.30;;;;;;4970610;28;20094;-91
2023/08/07 05:17:50;;;;;;;3.60;1.10;;;18.10;86.20;;;;;;4987876;28;20126;-91
2023/08/07 05:20:16;;;;;;;2.63;1.30;;;18.10;86.20;;;;;;4971939;28;20027;-93
2023/08/07 05:22:42;;;;;;;1.63;0.90;;;18.60;86.60;;;;;;4971017;28;20040;-90
2023/08/07 05:25:09;;;;;;;2.05;0.88;;;18.10;86.30;;;;;;4990312;28;20431;-90
2023/08/07 05:27:35;;;;;;;3.67;1.20;;;18.10;86.30;;;;;;4973561;28;20031;-91
2023/08/07 05:30:01;;;;;;;3.55;1.10;;;18.10;86.20;;;;;;4969814;28;20376;-89
2023/08/07 05:32:28;;;;;;;2.42;0.73;;;18.10;86.40;;;;;;4971919;28;20022;-89
2023/08/07 05:34:53;;;;;;;1.10;0.77;;;18.10;86.80;;;;;;4979313;28;20081;-91
2023/08/07 05:37:19;;;;;;;1.27;0.90;;;18.10;86.30;;;;;;4972410;28;20491;-87
2023/08/07 05:39:45;;;;;;;2.15;1.00;;;18.10;86.60;;;;;;4975211;28;20030;-91
2023/08/07 05:42:12;;;;;;;2.70;1.42;;;18.70;86.80;;;;;;4987306;28;20018;-87
2023/08/07 05:44:37;;;;;;;1.50;1.00;;;18.10;86.60;;;;;;4983457;28;20023;-90
2023/08/07 05:47:04;;;;;;;2.80;1.10;;;18.10;86.50;;;;;;4972453;28;20027;-89
2023/08/07 05:49:29;;;;;;;1.17;0.93;;;18.10;86.90;;;;;;4984053;28;20035;-89
2023/08/07 05:51:55;;;;;;;4.40;1.00;;;18.10;86.50;;;;;;4975726;28;20025;-90
2023/08/07 05:54:20;;;;;;;2.55;1.25;;;18.60;86.90;;;;;;4972039;28;20031;-89
2023/08/07 05:56:46;;;;;;;1.10;0.88;;;18.10;86.50;;;;;;4980451;28;20031;-90
2023/08/07 05:59:12;;;;;;;1.98;1.40;;;18.10;86.90;;;;;;4971920;28;20026;-91
2023/08/07 06:01:37;;;;;;;5.07;1.38;;;18.10;87.10;;;;;;4981455;28;20061;-90
2023/08/07 06:04:03;;;;;;;3.97;1.35;;;18.10;86.60;;;;;;4972174;28;20082;-92
2023/08/07 06:06:29;;;;;;;4.03;1.20;;;18.10;86.80;;;;;;4969258;28;20023;-90
2023/08/07 06:08:55;;;;;;;1.80;1.00;;;18.10;86.70;;;;;;4971637;28;20026;-90
2023/08/07 06:11:21;;;;;;;2.10;1.10;;;18.10;86.40;;;;;;4986694;28;20031;-91
2023/08/07 06:13:46;;;;;;;1.48;0.98;;;18.10;86.80;;;;;;4983003;28;20081;-90
2023/08/07 06:16:12;;;;;;;1.83;1.00;;;18.10;86.60;;;;;;4967988;28;20033;-92
2023/08/07 06:18:38;;;;;;;1.58;0.80;;;18.10;86.50;;;;;;4984682;28;20029;-91
2023/08/07 06:21:06;;;;;;;8.52;1.38;;;18.10;86.70;;;;;;4980803;28;20046;-91
2023/08/07 06:23:32;;;;;;;3.38;1.27;;;18.10;86.90;;;;;;4969716;28;20018;-91
2023/08/07 06:25:58;;;;;;;3.67;1.00;;;18.10;87.00;;;;;;4972171;28;20034;-90
2023/08/07 06:28:24;;;;;;;2.22;0.98;;;18.20;87.00;;;;;;4975003;28;20027;-92
2023/08/07 06:30:49;;;;;;;2.03;0.88;;;18.20;87.40;;;;;;4977828;28;20061;-91
2023/08/07 06:33:15;;;;;;;1.13;0.98;;;18.10;86.70;;;;;;4975769;28;20026;-92
2023/08/07 06:35:42;;;;;;;1.42;1.23;;;18.10;86.80;;;;;;4986098;28;20015;-87
2023/08/07 06:38:08;;;;;;;1.20;0.90;;;18.10;87.00;;;;;;4974731;28;20039;-91
2023/08/07 06:40:35;;;;;;;2.35;1.10;;;18.10;86.50;;;;;;4977297;28;20026;-89
2023/08/07 06:43:00;;;;;;;3.78;1.40;;;18.10;86.20;;;;;;4991531;28;20023;-90
2023/08/07 06:45:26;;;;;;;1.70;1.08;;;18.10;86.40;;;;;;4974057;28;20109;-90
2023/08/07 06:47:52;;;;;;;2.38;1.20;;;18.40;87.00;;;;;;4974490;28;20626;-90
2023/08/07 06:50:17;;;;;;;2.33;1.35;;;18.10;86.40;;;;;;4976882;28;20030;-90
2023/08/07 06:52:43;;;;;;;3.13;1.08;;;18.10;86.50;;;;;;4984823;28;20023;-90
2023/08/07 06:55:09;;;;;;;3.08;1.20;;;18.90;86.90;;;;;;4974588;28;20078;-91
2023/08/07 06:57:34;;;;;;;4.05;1.23;;;18.10;86.40;;;;;;4986002;28;20038;-92
2023/08/07 07:00:00;;;;;;;2.97;1.02;;;18.10;86.60;;;;;;4982302;28;20027;-89
2023/08/07 07:02:26;;;;;;;1.85;1.15;;;18.00;86.60;;;;;;4974543;28;20110;-92
2023/08/07 07:04:51;;;;;;;3.50;1.05;;;18.10;86.70;;;;;;4983327;28;20065;-91
2023/08/07 07:07:17;;;;;;;1.52;1.10;;;18.10;86.90;;;;;;4977783;28;20660;-89
2023/08/07 07:09:42;;;;;;;3.22;1.20;;;18.10;86.50;;;;;;4986248;28;20019;-91
2023/08/07 07:12:08;;;;;;;4.95;1.10;;;18.10;86.60;;;;;;4977280;28;20562;-88
2023/08/07 07:14:34;;;;;;;4.35;1.00;;;18.00;86.70;;;;;;4983581;28;20027;-90
2023/08/07 07:17:00;;;;;;;3.40;1.20;;;18.10;86.40;;;;;;4974655;28;20062;-92
2023/08/07 07:19:26;;;;;;;3.35;1.23;;;18.10;86.60;;;;;;4976270;28;20109;-92
2023/08/07 07:21:52;;;;;;;5.10;1.10;;;18.10;86.70;;;;;;4984083;28;20066;-93
2023/08/07 07:24:17;;;;;;;3.75;1.30;;;18.00;86.60;;;;;;4975677;28;20026;-95
2023/08/07 07:26:43;;;;;;;1.02;0.95;;;18.10;87.10;;;;;;4985536;28;20058;-91
2023/08/07 07:29:09;;;;;;;2.58;1.35;;;18.80;87.70;;;;;;4975616;28;20114;-91
2023/08/07 07:31:34;;;;;;;1.45;0.90;;;18.10;86.90;;;;;;4982951;28;20440;-91
2023/08/07 07:34:00;;;;;;;1.33;1.08;;;18.10;86.90;;;;;;4974660;28;20038;-92
2023/08/07 07:36:26;;;;;;;2.45;0.88;;;18.40;86.80;;;;;;4975490;28;20095;-92
2023/08/07 07:38:51;;;;;;;2.88;1.30;;;18.10;87.60;;;;;;4983309;28;20037;-89
2023/08/07 07:41:17;;;;;;;2.28;1.38;;;18.10;86.80;;;;;;4976649;28;20057;-94
2023/08/07 07:43:43;;;;;;;3.42;1.00;;;18.10;86.30;;;;;;4976015;28;20070;-91
2023/08/07 07:46:09;;;;;;;3.47;1.10;;;18.10;86.90;;;;;;4976280;28;20031;-89
2023/08/07 07:48:34;;;;;;;5.57;1.35;;;18.10;87.00;;;;;;4983261;28;20038;-93
2023/08/07 07:51:01;;;;;;;2.40;1.05;;;18.10;86.60;;;;;;4974720;28;20029;-95
2023/08/07 07:53:27;;;;;;;2.40;1.00;;;18.10;86.70;;;;;;4973454;28;20031;-91
2023/08/07 07:55:53;;;;;;;2.30;1.27;;;18.40;87.20;;;;;;4973110;28;20034;-91
2023/08/07 07:58:19;;;;;;;1.77;1.00;;;18.10;87.60;;;;;;4975313;28;20688;-93
2023/08/07 08:00:45;;;;;;;2.60;1.20;;;18.10;87.60;;;;;;4984953;28;20027;-91
2023/08/07 08:03:12;;;;;;;2.92;1.27;;;18.10;87.50;;;;;;4974019;28;20069;-90
2023/08/07 08:05:37;;;;;;;2.95;1.10;;;18.10;87.60;;;;;;4981492;28;20407;-92
2023/08/07 08:08:03;;;;;;;1.30;0.90;;;18.10;87.60;;;;;;4973363;28;20026;-90
2023/08/07 08:10:29;;;;;;;3.22;1.20;;;18.10;87.60;;;;;;4975028;28;20035;-92
2023/08/07 08:12:55;;;;;;;5.28;2.13;;;18.10;87.10;;;;;;4983332;28;20026;-94
2023/08/07 08:15:21;;;;;;;0.85;0.85;;;18.10;87.40;;;;;;4974797;28;20463;-89
2023/08/07 08:17:47;;;;;;;1.60;1.20;;;18.10;87.50;;;;;;4982214;28;20041;-92
2023/08/07 08:20:18;;;;;;;1.55;1.10;;;18.10;87.50;;;;;;4975556;28;20443;-88
2023/08/07 08:22:44;;;;;;;3.30;1.25;;;18.10;87.80;;;;;;4980647;28;20067;-91
2023/08/07 08:25:14;;;;;;;2.40;1.20;;;18.10;87.70;;;;;;4993044;28;20019;-91
2023/08/07 08:27:40;;;;;;;3.65;1.15;;;18.10;87.80;;;;;;4973225;28;20415;-92
2023/08/07 08:30:06;;;;;;;4.18;1.17;;;18.10;87.60;;;;;;4982967;28;20026;-91
2023/08/07 08:32:32;;;;;;;1.80;0.90;;;18.10;87.40;;;;;;4975736;28;20069;-93
2023/08/07 08:34:58;;;;;;;2.70;1.30;;;18.20;87.50;;;;;;4983020;28;20632;-89
2023/08/07 08:37:23;;;;;;;6.40;1.33;;;18.10;87.50;;;;;;4988368;28;20105;-89
2023/08/07 08:39:49;;;;;;;2.05;1.20;;;18.10;87.60;;;;;;4972235;28;20081;-91
2023/08/07 08:42:18;;;;;;;1.83;0.88;;;18.20;87.70;;;;;;4990022;28;20431;-89
2023/08/07 08:45:03;;;;;;;1.83;1.23;;;18.10;87.60;;;;;;4976130;28;20031;-95
2023/08/07 08:47:31;;;;;;;1.48;1.25;;;18.10;87.60;;;;;;4986128;28;20037;-92
2023/08/07 08:50:02;;;;;;;1.50;1.00;;;18.10;87.60;;;;;;4974052;28;20022;-90
2023/08/07 08:52:32;;;;;;;3.25;1.27;;;18.10;87.70;;;;;;4973881;28;20491;-90
2023/08/07 08:54:58;;;;;;;2.08;1.40;;;18.20;87.70;;;;;;4975639;28;20037;-89
2023/08/07 08:57:26;;;;;;;1.38;1.20;;;18.10;87.50;;;;;;4988064;28;20030;-95
2023/08/07 08:59:52;;;;;;;3.00;1.30;;;18.10;87.40;;;;;;4974720;28;20027;-89
2023/08/07 09:02:18;;;;;;;3.67;1.25;;;18.10;87.60;;;;;;4989684;28;20031;-90
2023/08/07 09:04:44;;;;;;;3.33;1.23;;;18.10;87.60;;;;;;4972872;28;20038;-89
2023/08/07 09:07:13;;;;;;;4.53;1.25;;;18.10;87.60;;;;;;4981060;28;20387;-92
2023/08/07 09:09:40;;;;;;;1.25;1.08;;;18.20;87.80;;;;;;4972103;28;20018;-90
2023/08/07 09:12:15;;;;;;;1.67;1.05;;;18.10;87.70;;;;;;4980253;28;20054;-91
2023/08/07 09:14:44;;;;;;;1.95;1.13;;;18.20;87.60;;;;;;4972318;28;20486;-88
2023/08/07 09:17:12;;;;;;;1.35;1.20;;;18.80;88.00;;;;;;4974484;28;20121;-87
2023/08/07 09:19:38;;;;;;;1.95;1.38;;;18.20;87.60;;;;;;4972300;28;20026;-92
2023/08/07 09:22:04;;;;;;;1.20;1.08;;;18.20;87.50;;;;;;4982282;28;20026;-90
2023/08/07 09:24:29;;;;;;;3.83;1.50;;;18.10;87.50;;;;;;4973632;28;20046;-90
2023/08/07 09:26:55;;;;;;;2.25;1.38;;;18.10;87.40;;;;;;4972315;28;20074;-87
2023/08/07 09:29:22;;;;;;;3.88;0.98;;;18.20;87.50;;;;;;4988533;28;20030;-90
2023/08/07 09:31:47;;;;;;;1.55;1.02;;;18.10;87.30;;;;;;4971817;28;20089;-89
2023/08/07 09:34:16;;;;;;;3.70;0.98;;;18.20;87.50;;;;;;4971959;28;20471;-91
2023/08/07 09:36:42;;;;;;;2.03;1.10;;;18.10;87.40;;;;;;4971086;28;20031;-88
2023/08/07 09:39:08;;;;;;;2.40;1.23;;;18.10;87.20;;;;;;4980367;28;20026;-92
2023/08/07 09:41:35;;;;;;;1.65;1.20;;;18.10;88.00;;;;;;4972273;28;20073;-88
2023/08/07 09:44:10;;;;;;;5.53;1.05;;;18.30;87.30;;;;;;4973169;28;20114;-92
2023/08/07 09:46:45;;;;;;;1.67;1.00;;;18.20;87.30;;;;;;4988114;28;20034;-90
2023/08/07 09:49:11;;;;;;;1.63;0.90;;;18.10;87.30;;;;;;4986876;28;20038;-91
2023/08/07 09:51:47;;;;;;;1.67;1.20;;;18.10;87.20;;;;;;4971398;28;20018;-88
2023/08/07 09:54:13;;;;;;;1.15;1.00;;;18.20;87.30;;;;;;4975136;28;20025;-90
2023/08/07 09:56:43;;;;;;;0.98;0.93;;;18.10;87.30;;;;;;4988096;28;20109;-90
2023/08/07 09:59:09;;;;;;;1.30;1.10;;;18.20;87.20;;;;;;4982519;28;20480;-88
2023/08/07 10:01:38;;;;;;;2.47;1.25;;;18.20;87.20;;;;;;4976062;28;20032;-89
2023/08/07 10:04:05;;;;;;;4.05;1.20;;;18.20;87.30;;;;;;4974290;28;20034;-89
2023/08/07 10:06:30;;;;;;;3.67;1.15;;;18.60;87.50;;;;;;4991418;28;20050;-86
2023/08/07 10:08:57;;;;;;;2.00;0.93;;;18.20;87.10;;;;;;4982719;28;20077;-86
2023/08/07 10:11:23;;;;;;;1.55;0.90;;;18.70;87.40;;;;;;4974301;28;20039;-89
2023/08/07 10:13:50;;;;;;;1.10;1.00;;;18.20;87.10;;;;;;4972149;28;20129;-87
2023/08/07 10:16:15;;;;;;;1.10;0.90;;;18.20;86.90;;;;;;4980724;28;20058;-90
2023/08/07 10:18:41;;;;;;;2.63;0.98;;;18.20;86.60;;;;;;4992920;28;20027;-94
2023/08/07 10:21:07;;;;;;;1.65;1.15;;;18.30;86.80;;;;;;4974666;28;20050;-95
2023/08/07 10:23:36;;;;;;;6.13;1.13;;;18.20;86.90;;;;;;4966377;28;20023;-94
2023/08/07 10:26:05;;;;;;;1.23;1.02;;;18.20;86.60;;;;;;4969076;28;20112;-87
2023/08/07 10:28:37;;;;;;;3.90;1.10;;;18.20;86.70;;;;;;4968492;28;20122;-95
2023/08/07 10:31:04;;;;;;;1.48;0.98;;;18.20;86.40;;;;;;4982105;28;20061;-92
2023/08/07 10:33:31;;;;;;;2.03;0.80;;;18.20;86.40;;;;;;4971697;28;20027;-89
2023/08/07 10:35:59;;;;;;;4.15;0.70;;;18.20;86.40;;;;;;4971770;28;20027;-93
2023/08/07 10:38:25;;;;;;;2.05;1.10;;;18.30;86.50;;;;;;4972501;28;20068;-94
2023/08/07 10:41:12;;;;;;;5.72;1.08;;;18.20;86.00;;;;;;4973631;28;20039;-90
2023/08/07 10:43:40;;;;;;;2.15;1.20;;;18.20;86.20;;;;;;4969069;28;20110;-91
2023/08/07 10:46:09;;;;;;;7.82;1.08;;;18.20;86.10;;;;;;4980861;28;20038;-94
2023/08/07 10:48:53;;;;;;;1.10;0.85;;;18.20;86.10;;;;;;4979638;28;20064;-90
2023/08/07 10:51:18;;;;;;;1.77;1.02;;;18.20;86.10;;;;;;4971950;28;20019;-93
2023/08/07 10:53:50;;;;;;;1.88;1.10;;;18.20;86.10;;;;;;4989211;28;20030;-89
2023/08/07 10:56:17;;;;;;;2.75;1.08;;;18.20;85.80;;;;;;4976724;28;20031;-92
2023/08/07 10:58:50;;;;;;;1.05;0.77;;;18.20;85.70;;;;;;4973472;28;20030;-91
2023/08/07 11:01:34;;;;;;;0.88;0.82;;;18.30;85.60;;;;;;4980112;28;20039;-95
2023/08/07 11:04:05;;;;;;;0.93;0.85;;;18.30;85.40;;;;;;4968817;28;20030;-91
2023/08/07 11:06:32;;;;;;;1.38;1.00;;;18.30;85.70;;;;;;4984280;28;20023;-91
2023/08/07 11:08:59;;;;;;;1.75;0.80;;;18.20;85.50;;;;;;4970303;28;20038;-88
2023/08/07 11:11:26;;;;;;;4.60;1.08;;;18.20;85.50;;;;;;4986802;28;20042;-91
2023/08/07 11:13:52;;;;;;;1.05;0.90;;;18.30;85.40;;;;;;4973658;28;20027;-90
2023/08/07 11:16:20;;;;;;;2.33;0.90;;;18.40;85.40;;;;;;4985902;28;20058;-93
2023/08/07 11:18:49;;;;;;;4.32;0.93;;;18.20;85.30;;;;;;4980400;28;20094;-96
2023/08/07 11:21:15;;;;;;;1.73;0.93;;;18.30;85.40;;;;;;4986527;28;20078;-94
2023/08/07 11:23:41;;;;;;;3.42;1.10;;;18.30;85.40;;;;;;4975146;28;20023;-96
2023/08/07 11:26:10;;;;;;;3.63;1.20;;;18.30;85.60;;;;;;4979566;28;20055;-94
2023/08/07 11:28:35;;;;;;;2.85;1.02;;;18.20;85.30;;;;;;4993548;28;20019;-96
2023/08/07 11:31:02;;;;;;;1.08;0.85;;;18.20;85.20;;;;;;4976898;28;20045;-93
2023/08/07 11:33:28;;;;;;;1.50;0.90;;;18.30;85.20;;;;;;4991971;28;20019;-85
2023/08/07 11:35:54;;;;;;;2.67;0.90;;;18.30;85.20;;;;;;4977893;28;20117;-95
2023/08/07 11:38:34;;;;;;;1.83;1.15;;;18.30;84.90;;;;;;4982634;28;20682;-90
2023/08/07 11:41:01;;;;;;;1.10;1.00;;;18.30;84.90;;;;;;4970834;28;20432;-93
2023/08/07 11:43:29;;;;;;;8.20;1.15;;;18.30;85.10;;;;;;4972568;28;20078;-89
2023/08/07 11:45:56;;;;;;;2.28;1.10;;;18.30;85.00;;;;;;4974200;28;20081;-92
2023/08/07 11:48:25;;;;;;;2.20;0.93;;;18.30;85.00;;;;;;4970984;28;20027;-93
2023/08/07 11:50:51;;;;;;;1.15;0.90;;;18.30;85.00;;;;;;4973923;28;20034;-95
2023/08/07 11:53:19;;;;;;;1.50;0.80;;;18.30;85.00;;;;;;4971740;28;20031;-96
2023/08/07 11:55:53;;;;;;;2.47;1.00;;;18.30;84.40;;;;;;4974900;28;20030;-91
2023/08/07 11:58:19;;;;;;;1.20;0.90;;;18.40;84.60;;;;;;4973737;28;20049;-90
2023/08/07 12:00:45;;;;;;;2.47;1.27;;;18.30;84.30;;;;;;4990786;28;20027;-93
2023/08/07 12:03:34;;;;;;;1.10;1.00;;;18.70;84.60;;;;;;4974568;28;20030;-86
2023/08/07 12:06:03;;;;;;;0.90;0.80;;;18.30;84.30;;;;;;4988262;28;20047;-95
2023/08/07 12:08:34;;;;;;;2.00;1.13;;;18.30;83.90;;;;;;4981964;28;20146;-94
2023/08/07 12:11:08;;;;;;;3.08;1.13;;;18.40;84.10;;;;;;4976553;28;20802;-93
2023/08/07 12:13:37;;;;;;;1.50;0.88;;;18.40;83.80;;;;;;4970222;28;20035;-95
2023/08/07 12:16:03;;;;;;;1.42;1.00;;;18.40;83.60;;;;;;4977836;28;20518;-89
2023/08/07 12:18:31;;;;;;;0.85;0.85;;;18.40;83.50;;;;;;4975285;28;20038;-90
2023/08/07 12:21:01;;;;;;;0.88;0.85;;;18.40;83.70;;;;;;4974288;28;20392;-91
2023/08/07 12:23:26;;;;;;;2.67;0.88;;;18.40;83.50;;;;;;4984495;28;20062;-88
2023/08/07 12:25:53;;;;;;;4.38;1.10;;;18.40;83.60;;;;;;4974336;28;20530;-91
2023/08/07 12:28:19;;;;;;;1.42;1.02;;;18.40;84.60;;;;;;4975618;28;20053;-95
2023/08/07 12:30:46;;;;;;;4.45;1.10;;;18.30;84.00;;;;;;4975349;28;20030;-93
2023/08/07 12:33:12;;;;;;;1.30;1.00;;;18.30;84.30;;;;;;4974857;28;20488;-92
2023/08/07 12:35:38;;;;;;;1.45;1.15;;;18.40;84.40;;;;;;4991517;28;20046;-93
2023/08/07 12:38:03;;;;;;;1.98;1.10;;;18.30;84.30;;;;;;4975785;28;20081;-92
2023/08/07 12:40:31;;;;;;;2.05;1.13;;;18.30;84.00;;;;;;4962039;28;20078;-93
2023/08/07 12:42:57;;;;;;;6.85;1.27;;;19.00;84.80;;;;;;4975843;28;20027;-90
2023/08/07 12:45:23;;;;;;;1.80;1.10;;;18.30;84.30;;;;;;4990523;28;20027;-92
2023/08/07 12:47:49;;;;;;;2.22;1.08;;;18.30;84.30;;;;;;4974891;28;20097;-87